sensor_id;sensor_type;location;lat;lon;timestamp;P1;durP1;ratioP1;P2;durP2;ratioP2
27013;SDS011;14556;52.222;4.510;2023-06-22T00:01:18;18.43;;;11.87;;
27013;SDS011;14556;52.222;4.510;2023-06-22T00:03:45;20.17;;;12.17;;
27013;SDS011;14556;52.222;4.510;2023-06-22T00:06:12;20.67;;;12.63;;
27013;SDS011;14556;52.222;4.510;2023-06-22T00:08:38;18.83;;;12.77;;
27013;SDS011;14556;52.222;4.510;2023-06-22T00:11:05;19.97;;;11.73;;
27013;SDS011;14556;52.222;4.510;2023-06-22T00:13:31;20.63;;;13.20;;
27013;SDS011;14556;52.222;4.510;2023-06-22T00:15:58;21.37;;;12.50;;
27013;SDS011;14556;52.222;4.510;2023-06-22T00:18:24;20.90;;;12.17;;
27013;SDS011;14556;52.222;4.510;2023-06-22T00:20:54;20.30;;;12.87;;
27013;SDS011;14556;52.222;4.510;2023-06-22T00:23:25;21.70;;;13.47;;
27013;SDS011;14556;52.222;4.510;2023-06-22T00:25:51;21.43;;;12.80;;
27013;SDS011;14556;52.222;4.510;2023-06-22T00:28:18;21.97;;;12.77;;
27013;SDS011;14556;52.222;4.510;2023-06-22T00:30:45;18.57;;;12.97;;
27013;SDS011;14556;52.222;4.510;2023-06-22T00:33:12;21.67;;;12.93;;
27013;SDS011;14556;52.222;4.510;2023-06-22T00:35:38;21.93;;;13.43;;
27013;SDS011;14556;52.222;4.510;2023-06-22T00:38:07;22.83;;;13.73;;
27013;SDS011;14556;52.222;4.510;2023-06-22T00:40:34;21.37;;;13.30;;
27013;SDS011;14556;52.222;4.510;2023-06-22T00:43:01;21.00;;;13.57;;
27013;SDS011;14556;52.222;4.510;2023-06-22T00:45:28;23.23;;;13.63;;
27013;SDS011;14556;52.222;4.510;2023-06-22T00:47:56;22.33;;;13.73;;
27013;SDS011;14556;52.222;4.510;2023-06-22T00:50:24;19.80;;;12.13;;
27013;SDS011;14556;52.222;4.510;2023-06-22T00:52:54;23.00;;;12.37;;
27013;SDS011;14556;52.222;4.510;2023-06-22T00:55:23;20.33;;;12.43;;
27013;SDS011;14556;52.222;4.510;2023-06-22T00:57:50;21.67;;;12.43;;
27013;SDS011;14556;52.222;4.510;2023-06-22T01:00:17;22.10;;;13.07;;
27013;SDS011;14556;52.222;4.510;2023-06-22T01:02:46;20.33;;;11.97;;
27013;SDS011;14556;52.222;4.510;2023-06-22T01:05:14;20.43;;;12.47;;
27013;SDS011;14556;52.222;4.510;2023-06-22T01:08:26;19.93;;;12.27;;
27013;SDS011;14556;52.222;4.510;2023-06-22T01:10:40;19.40;;;12.23;;
27013;SDS011;14556;52.222;4.510;2023-06-22T01:13:14;21.37;;;13.47;;
27013;SDS011;14556;52.222;4.510;2023-06-22T01:15:49;19.30;;;12.23;;
27013;SDS011;14556;52.222;4.510;2023-06-22T01:18:19;19.80;;;12.03;;
27013;SDS011;14556;52.222;4.510;2023-06-22T01:20:54;19.53;;;12.13;;
27013;SDS011;14556;52.222;4.510;2023-06-22T01:24:13;19.10;;;11.77;;
27013;SDS011;14556;52.222;4.510;2023-06-22T01:26:19;20.93;;;12.33;;
27013;SDS011;14556;52.222;4.510;2023-06-22T01:28:54;19.27;;;11.20;;
27013;SDS011;14556;52.222;4.510;2023-06-22T01:31:23;21.07;;;12.30;;
27013;SDS011;14556;52.222;4.510;2023-06-22T01:33:53;21.60;;;12.83;;
27013;SDS011;14556;52.222;4.510;2023-06-22T01:36:22;21.30;;;12.23;;
27013;SDS011;14556;52.222;4.510;2023-06-22T01:38:50;19.67;;;12.97;;
27013;SDS011;14556;52.222;4.510;2023-06-22T01:41:21;19.93;;;13.03;;
27013;SDS011;14556;52.222;4.510;2023-06-22T01:43:51;21.77;;;12.73;;
27013;SDS011;14556;52.222;4.510;2023-06-22T01:46:19;20.53;;;12.93;;
27013;SDS011;14556;52.222;4.510;2023-06-22T01:48:47;22.37;;;12.90;;
27013;SDS011;14556;52.222;4.510;2023-06-22T01:51:14;18.43;;;11.93;;
27013;SDS011;14556;52.222;4.510;2023-06-22T01:53:41;19.07;;;12.33;;
27013;SDS011;14556;52.222;4.510;2023-06-22T01:56:08;22.40;;;12.87;;
27013;SDS011;14556;52.222;4.510;2023-06-22T01:58:36;23.33;;;13.83;;
27013;SDS011;14556;52.222;4.510;2023-06-22T02:01:11;20.03;;;13.17;;
27013;SDS011;14556;52.222;4.510;2023-06-22T02:03:41;20.70;;;13.00;;
27013;SDS011;14556;52.222;4.510;2023-06-22T02:06:34;22.53;;;13.63;;
27013;SDS011;14556;52.222;4.510;2023-06-22T02:09:06;21.87;;;12.33;;
27013;SDS011;14556;52.222;4.510;2023-06-22T02:11:36;21.97;;;12.70;;
27013;SDS011;14556;52.222;4.510;2023-06-22T02:14:03;22.00;;;13.00;;
27013;SDS011;14556;52.222;4.510;2023-06-22T02:16:31;24.57;;;13.40;;
27013;SDS011;14556;52.222;4.510;2023-06-22T02:18:59;21.00;;;12.33;;
27013;SDS011;14556;52.222;4.510;2023-06-22T02:21:29;20.40;;;12.93;;
27013;SDS011;14556;52.222;4.510;2023-06-22T02:23:57;22.07;;;13.57;;
27013;SDS011;14556;52.222;4.510;2023-06-22T02:26:25;21.00;;;12.50;;
27013;SDS011;14556;52.222;4.510;2023-06-22T02:28:52;20.87;;;12.23;;
27013;SDS011;14556;52.222;4.510;2023-06-22T02:31:19;22.07;;;13.00;;
27013;SDS011;14556;52.222;4.510;2023-06-22T02:33:46;22.00;;;12.67;;
27013;SDS011;14556;52.222;4.510;2023-06-22T02:36:14;17.80;;;11.17;;
27013;SDS011;14556;52.222;4.510;2023-06-22T02:38:41;17.80;;;11.93;;
27013;SDS011;14556;52.222;4.510;2023-06-22T02:41:16;20.17;;;12.80;;
27013;SDS011;14556;52.222;4.510;2023-06-22T02:43:45;19.73;;;12.43;;
27013;SDS011;14556;52.222;4.510;2023-06-22T02:46:12;22.13;;;13.17;;
27013;SDS011;14556;52.222;4.510;2023-06-22T02:48:40;19.90;;;13.37;;
27013;SDS011;14556;52.222;4.510;2023-06-22T02:51:06;20.50;;;12.63;;
27013;SDS011;14556;52.222;4.510;2023-06-22T02:53:33;21.40;;;13.63;;
27013;SDS011;14556;52.222;4.510;2023-06-22T02:56:03;21.07;;;12.87;;
27013;SDS011;14556;52.222;4.510;2023-06-22T02:58:32;19.53;;;13.03;;
27013;SDS011;14556;52.222;4.510;2023-06-22T03:01:05;22.37;;;14.10;;
27013;SDS011;14556;52.222;4.510;2023-06-22T03:03:32;22.17;;;13.67;;
27013;SDS011;14556;52.222;4.510;2023-06-22T03:05:59;24.27;;;12.87;;
27013;SDS011;14556;52.222;4.510;2023-06-22T03:08:27;23.30;;;13.20;;
27013;SDS011;14556;52.222;4.510;2023-06-22T03:10:55;23.50;;;14.40;;
27013;SDS011;14556;52.222;4.510;2023-06-22T03:13:22;20.00;;;12.93;;
27013;SDS011;14556;52.222;4.510;2023-06-22T03:15:49;20.57;;;13.00;;
27013;SDS011;14556;52.222;4.510;2023-06-22T03:18:15;22.30;;;13.43;;
27013;SDS011;14556;52.222;4.510;2023-06-22T03:20:42;19.90;;;13.17;;
27013;SDS011;14556;52.222;4.510;2023-06-22T03:23:08;22.20;;;12.20;;
27013;SDS011;14556;52.222;4.510;2023-06-22T03:25:35;21.63;;;12.97;;
27013;SDS011;14556;52.222;4.510;2023-06-22T03:28:01;23.67;;;14.10;;
27013;SDS011;14556;52.222;4.510;2023-06-22T03:30:28;18.30;;;12.70;;
27013;SDS011;14556;52.222;4.510;2023-06-22T03:32:55;22.27;;;13.23;;
27013;SDS011;14556;52.222;4.510;2023-06-22T03:35:22;24.23;;;13.30;;
27013;SDS011;14556;52.222;4.510;2023-06-22T03:37:49;20.60;;;13.60;;
27013;SDS011;14556;52.222;4.510;2023-06-22T03:40:15;22.27;;;14.63;;
27013;SDS011;14556;52.222;4.510;2023-06-22T03:42:42;24.23;;;13.27;;
27013;SDS011;14556;52.222;4.510;2023-06-22T03:45:08;22.90;;;13.63;;
27013;SDS011;14556;52.222;4.510;2023-06-22T03:47:35;20.13;;;12.63;;
27013;SDS011;14556;52.222;4.510;2023-06-22T03:50:02;21.90;;;12.77;;
27013;SDS011;14556;52.222;4.510;2023-06-22T03:52:30;25.07;;;13.60;;
27013;SDS011;14556;52.222;4.510;2023-06-22T03:54:56;24.70;;;13.60;;
27013;SDS011;14556;52.222;4.510;2023-06-22T03:57:23;22.17;;;14.00;;
27013;SDS011;14556;52.222;4.510;2023-06-22T03:59:50;20.17;;;12.63;;
27013;SDS011;14556;52.222;4.510;2023-06-22T04:02:16;27.70;;;13.97;;
27013;SDS011;14556;52.222;4.510;2023-06-22T04:04:43;24.40;;;14.17;;
27013;SDS011;14556;52.222;4.510;2023-06-22T04:07:09;24.90;;;14.03;;
27013;SDS011;14556;52.222;4.510;2023-06-22T04:09:36;22.40;;;13.13;;
27013;SDS011;14556;52.222;4.510;2023-06-22T04:12:02;22.97;;;13.67;;
27013;SDS011;14556;52.222;4.510;2023-06-22T04:14:29;25.00;;;14.53;;
27013;SDS011;14556;52.222;4.510;2023-06-22T04:16:56;21.73;;;13.17;;
27013;SDS011;14556;52.222;4.510;2023-06-22T04:19:24;21.47;;;13.27;;
27013;SDS011;14556;52.222;4.510;2023-06-22T04:21:50;22.60;;;12.77;;
27013;SDS011;14556;52.222;4.510;2023-06-22T04:24:17;22.53;;;13.13;;
27013;SDS011;14556;52.222;4.510;2023-06-22T04:26:43;24.43;;;14.03;;
27013;SDS011;14556;52.222;4.510;2023-06-22T04:29:11;21.80;;;13.50;;
27013;SDS011;14556;52.222;4.510;2023-06-22T04:31:38;22.80;;;12.57;;
27013;SDS011;14556;52.222;4.510;2023-06-22T04:34:06;21.47;;;13.57;;
27013;SDS011;14556;52.222;4.510;2023-06-22T04:36:34;23.70;;;13.90;;
27013;SDS011;14556;52.222;4.510;2023-06-22T04:39:05;23.67;;;13.07;;
27013;SDS011;14556;52.222;4.510;2023-06-22T04:41:40;22.13;;;12.90;;
27013;SDS011;14556;52.222;4.510;2023-06-22T04:46:40;22.60;;;13.77;;
27013;SDS011;14556;52.222;4.510;2023-06-22T04:49:07;24.17;;;13.20;;
27013;SDS011;14556;52.222;4.510;2023-06-22T04:51:40;20.63;;;13.00;;
27013;SDS011;14556;52.222;4.510;2023-06-22T04:54:08;22.80;;;13.17;;
27013;SDS011;14556;52.222;4.510;2023-06-22T04:56:35;20.93;;;12.30;;
27013;SDS011;14556;52.222;4.510;2023-06-22T04:59:02;22.60;;;13.60;;
27013;SDS011;14556;52.222;4.510;2023-06-22T05:01:29;22.77;;;13.57;;
27013;SDS011;14556;52.222;4.510;2023-06-22T05:03:57;25.50;;;14.53;;
27013;SDS011;14556;52.222;4.510;2023-06-22T05:06:27;27.10;;;15.80;;
27013;SDS011;14556;52.222;4.510;2023-06-22T05:08:54;23.80;;;14.57;;
27013;SDS011;14556;52.222;4.510;2023-06-22T05:11:25;24.87;;;13.70;;
27013;SDS011;14556;52.222;4.510;2023-06-22T05:13:52;25.07;;;15.03;;
27013;SDS011;14556;52.222;4.510;2023-06-22T05:16:19;25.10;;;15.20;;
27013;SDS011;14556;52.222;4.510;2023-06-22T05:18:53;25.53;;;14.70;;
27013;SDS011;14556;52.222;4.510;2023-06-22T05:21:25;26.73;;;14.73;;
27013;SDS011;14556;52.222;4.510;2023-06-22T05:23:53;23.07;;;14.77;;
27013;SDS011;14556;52.222;4.510;2023-06-22T05:26:20;23.47;;;13.87;;
27013;SDS011;14556;52.222;4.510;2023-06-22T05:28:47;23.70;;;14.33;;
27013;SDS011;14556;52.222;4.510;2023-06-22T05:31:14;22.83;;;13.63;;
27013;SDS011;14556;52.222;4.510;2023-06-22T05:33:41;23.90;;;15.30;;
27013;SDS011;14556;52.222;4.510;2023-06-22T05:36:09;22.37;;;13.93;;
27013;SDS011;14556;52.222;4.510;2023-06-22T05:38:37;23.80;;;13.87;;
27013;SDS011;14556;52.222;4.510;2023-06-22T05:41:04;20.57;;;13.43;;
27013;SDS011;14556;52.222;4.510;2023-06-22T05:43:31;22.67;;;14.27;;
27013;SDS011;14556;52.222;4.510;2023-06-22T05:45:58;27.17;;;15.03;;
27013;SDS011;14556;52.222;4.510;2023-06-22T05:48:25;22.77;;;13.60;;
27013;SDS011;14556;52.222;4.510;2023-06-22T05:50:52;21.07;;;12.77;;
27013;SDS011;14556;52.222;4.510;2023-06-22T05:53:20;22.70;;;13.23;;
27013;SDS011;14556;52.222;4.510;2023-06-22T05:55:46;25.23;;;14.23;;
27013;SDS011;14556;52.222;4.510;2023-06-22T05:58:13;21.77;;;12.40;;
27013;SDS011;14556;52.222;4.510;2023-06-22T06:00:40;22.30;;;13.67;;
27013;SDS011;14556;52.222;4.510;2023-06-22T06:03:07;22.97;;;14.33;;
27013;SDS011;14556;52.222;4.510;2023-06-22T06:05:35;21.70;;;13.70;;
27013;SDS011;14556;52.222;4.510;2023-06-22T06:08:03;24.53;;;12.63;;
27013;SDS011;14556;52.222;4.510;2023-06-22T06:10:32;27.07;;;15.20;;
27013;SDS011;14556;52.222;4.510;2023-06-22T06:13:00;27.47;;;14.33;;
27013;SDS011;14556;52.222;4.510;2023-06-22T06:15:31;22.60;;;13.93;;
27013;SDS011;14556;52.222;4.510;2023-06-22T06:17:58;26.87;;;15.50;;
27013;SDS011;14556;52.222;4.510;2023-06-22T06:20:25;22.87;;;14.73;;
27013;SDS011;14556;52.222;4.510;2023-06-22T06:22:54;25.47;;;15.07;;
27013;SDS011;14556;52.222;4.510;2023-06-22T06:25:21;23.23;;;14.03;;
27013;SDS011;14556;52.222;4.510;2023-06-22T06:27:49;24.93;;;13.67;;
27013;SDS011;14556;52.222;4.510;2023-06-22T06:30:17;22.23;;;13.53;;
27013;SDS011;14556;52.222;4.510;2023-06-22T06:32:45;22.60;;;12.80;;
27013;SDS011;14556;52.222;4.510;2023-06-22T06:35:13;21.27;;;13.20;;
27013;SDS011;14556;52.222;4.510;2023-06-22T06:37:46;23.00;;;12.50;;
27013;SDS011;14556;52.222;4.510;2023-06-22T06:40:14;18.60;;;11.90;;
27013;SDS011;14556;52.222;4.510;2023-06-22T06:42:43;16.83;;;12.10;;
27013;SDS011;14556;52.222;4.510;2023-06-22T06:45:14;16.23;;;11.70;;
27013;SDS011;14556;52.222;4.510;2023-06-22T06:47:43;18.80;;;11.67;;
27013;SDS011;14556;52.222;4.510;2023-06-22T06:50:10;20.70;;;13.33;;
27013;SDS011;14556;52.222;4.510;2023-06-22T06:52:37;18.47;;;11.67;;
27013;SDS011;14556;52.222;4.510;2023-06-22T06:55:04;18.30;;;11.33;;
27013;SDS011;14556;52.222;4.510;2023-06-22T06:57:38;16.50;;;10.30;;
27013;SDS011;14556;52.222;4.510;2023-06-22T07:00:06;17.97;;;11.20;;
27013;SDS011;14556;52.222;4.510;2023-06-22T07:02:43;16.73;;;10.90;;
27013;SDS011;14556;52.222;4.510;2023-06-22T07:05:12;16.03;;;10.93;;
27013;SDS011;14556;52.222;4.510;2023-06-22T07:07:39;15.10;;;10.03;;
27013;SDS011;14556;52.222;4.510;2023-06-22T07:10:08;17.70;;;10.87;;
27013;SDS011;14556;52.222;4.510;2023-06-22T07:12:35;18.43;;;10.73;;
27013;SDS011;14556;52.222;4.510;2023-06-22T07:15:02;16.03;;;9.57;;
27013;SDS011;14556;52.222;4.510;2023-06-22T07:17:38;14.83;;;9.13;;
27013;SDS011;14556;52.222;4.510;2023-06-22T07:20:10;14.93;;;9.47;;
27013;SDS011;14556;52.222;4.510;2023-06-22T07:22:41;13.53;;;8.33;;
27013;SDS011;14556;52.222;4.510;2023-06-22T07:25:11;14.97;;;9.53;;
27013;SDS011;14556;52.222;4.510;2023-06-22T07:27:45;12.63;;;7.83;;
27013;SDS011;14556;52.222;4.510;2023-06-22T07:30:14;14.80;;;8.73;;
27013;SDS011;14556;52.222;4.510;2023-06-22T07:32:40;11.07;;;7.83;;
27013;SDS011;14556;52.222;4.510;2023-06-22T07:35:08;12.93;;;9.53;;
27013;SDS011;14556;52.222;4.510;2023-06-22T07:37:34;13.57;;;8.13;;
27013;SDS011;14556;52.222;4.510;2023-06-22T07:40:02;12.17;;;7.10;;
27013;SDS011;14556;52.222;4.510;2023-06-22T07:42:32;8.70;;;6.43;;
27013;SDS011;14556;52.222;4.510;2023-06-22T07:44:59;12.53;;;7.47;;
27013;SDS011;14556;52.222;4.510;2023-06-22T07:47:26;10.30;;;6.20;;
27013;SDS011;14556;52.222;4.510;2023-06-22T07:49:58;7.03;;;5.13;;
27013;SDS011;14556;52.222;4.510;2023-06-22T07:52:30;10.83;;;6.77;;
27013;SDS011;14556;52.222;4.510;2023-06-22T07:54:57;8.57;;;5.30;;
27013;SDS011;14556;52.222;4.510;2023-06-22T07:57:25;7.07;;;4.57;;
27013;SDS011;14556;52.222;4.510;2023-06-22T07:59:59;7.40;;;4.13;;
27013;SDS011;14556;52.222;4.510;2023-06-22T08:02:26;7.33;;;4.33;;
27013;SDS011;14556;52.222;4.510;2023-06-22T08:04:53;6.90;;;4.60;;
27013;SDS011;14556;52.222;4.510;2023-06-22T08:07:31;7.00;;;4.50;;
27013;SDS011;14556;52.222;4.510;2023-06-22T08:09:59;6.40;;;4.70;;
27013;SDS011;14556;52.222;4.510;2023-06-22T08:12:26;9.67;;;5.00;;
27013;SDS011;14556;52.222;4.510;2023-06-22T08:14:52;8.90;;;4.80;;
27013;SDS011;14556;52.222;4.510;2023-06-22T08:17:19;7.50;;;5.20;;
27013;SDS011;14556;52.222;4.510;2023-06-22T08:19:45;8.17;;;5.63;;
27013;SDS011;14556;52.222;4.510;2023-06-22T08:22:12;6.10;;;4.70;;
27013;SDS011;14556;52.222;4.510;2023-06-22T08:24:38;7.83;;;5.33;;
27013;SDS011;14556;52.222;4.510;2023-06-22T08:27:06;8.00;;;5.10;;
27013;SDS011;14556;52.222;4.510;2023-06-22T08:29:35;6.73;;;4.73;;
27013;SDS011;14556;52.222;4.510;2023-06-22T08:32:02;8.07;;;4.03;;
27013;SDS011;14556;52.222;4.510;2023-06-22T08:34:29;6.53;;;4.23;;
27013;SDS011;14556;52.222;4.510;2023-06-22T08:36:55;5.07;;;3.43;;
27013;SDS011;14556;52.222;4.510;2023-06-22T08:39:22;10.10;;;5.27;;
27013;SDS011;14556;52.222;4.510;2023-06-22T08:41:48;7.07;;;4.70;;
27013;SDS011;14556;52.222;4.510;2023-06-22T08:44:17;8.03;;;4.83;;
27013;SDS011;14556;52.222;4.510;2023-06-22T08:46:45;7.90;;;4.60;;
27013;SDS011;14556;52.222;4.510;2023-06-22T08:49:11;7.87;;;5.40;;
27013;SDS011;14556;52.222;4.510;2023-06-22T08:51:38;6.93;;;4.77;;
27013;SDS011;14556;52.222;4.510;2023-06-22T08:54:04;9.57;;;5.60;;
27013;SDS011;14556;52.222;4.510;2023-06-22T08:56:31;11.00;;;6.10;;
27013;SDS011;14556;52.222;4.510;2023-06-22T08:58:58;9.07;;;6.37;;
27013;SDS011;14556;52.222;4.510;2023-06-22T09:01:24;10.53;;;6.93;;
27013;SDS011;14556;52.222;4.510;2023-06-22T09:03:51;8.27;;;6.07;;
27013;SDS011;14556;52.222;4.510;2023-06-22T09:06:22;9.33;;;6.47;;
27013;SDS011;14556;52.222;4.510;2023-06-22T09:08:48;8.93;;;5.70;;
27013;SDS011;14556;52.222;4.510;2023-06-22T09:11:15;9.03;;;5.93;;
27013;SDS011;14556;52.222;4.510;2023-06-22T09:13:42;10.13;;;6.93;;
27013;SDS011;14556;52.222;4.510;2023-06-22T09:16:10;8.27;;;5.83;;
27013;SDS011;14556;52.222;4.510;2023-06-22T09:18:38;8.63;;;6.77;;
27013;SDS011;14556;52.222;4.510;2023-06-22T09:21:04;12.87;;;6.33;;
27013;SDS011;14556;52.222;4.510;2023-06-22T09:23:31;10.67;;;6.10;;
27013;SDS011;14556;52.222;4.510;2023-06-22T09:25:57;9.93;;;7.33;;
27013;SDS011;14556;52.222;4.510;2023-06-22T09:28:24;11.27;;;7.60;;
27013;SDS011;14556;52.222;4.510;2023-06-22T09:30:51;9.30;;;5.60;;
27013;SDS011;14556;52.222;4.510;2023-06-22T09:33:17;6.40;;;4.60;;
27013;SDS011;14556;52.222;4.510;2023-06-22T09:35:45;9.53;;;6.70;;
27013;SDS011;14556;52.222;4.510;2023-06-22T09:38:12;9.40;;;5.93;;
27013;SDS011;14556;52.222;4.510;2023-06-22T09:40:38;11.07;;;7.17;;
27013;SDS011;14556;52.222;4.510;2023-06-22T09:43:06;8.50;;;6.53;;
27013;SDS011;14556;52.222;4.510;2023-06-22T09:45:33;7.37;;;5.50;;
27013;SDS011;14556;52.222;4.510;2023-06-22T09:47:59;7.77;;;5.10;;
27013;SDS011;14556;52.222;4.510;2023-06-22T09:50:26;5.10;;;4.43;;
27013;SDS011;14556;52.222;4.510;2023-06-22T09:52:55;7.57;;;4.43;;
27013;SDS011;14556;52.222;4.510;2023-06-22T09:55:21;7.90;;;6.10;;
27013;SDS011;14556;52.222;4.510;2023-06-22T09:57:48;7.40;;;5.13;;
27013;SDS011;14556;52.222;4.510;2023-06-22T10:00:16;7.57;;;6.07;;
27013;SDS011;14556;52.222;4.510;2023-06-22T10:02:43;8.97;;;5.77;;
27013;SDS011;14556;52.222;4.510;2023-06-22T10:05:11;9.37;;;5.77;;
27013;SDS011;14556;52.222;4.510;2023-06-22T10:07:38;8.37;;;6.00;;
27013;SDS011;14556;52.222;4.510;2023-06-22T10:10:09;8.10;;;5.70;;
27013;SDS011;14556;52.222;4.510;2023-06-22T10:12:42;11.27;;;6.03;;
27013;SDS011;14556;52.222;4.510;2023-06-22T10:15:11;8.27;;;5.30;;
27013;SDS011;14556;52.222;4.510;2023-06-22T10:17:38;6.63;;;5.60;;
27013;SDS011;14556;52.222;4.510;2023-06-22T10:20:08;8.87;;;5.93;;
27013;SDS011;14556;52.222;4.510;2023-06-22T10:22:39;7.57;;;5.60;;
27013;SDS011;14556;52.222;4.510;2023-06-22T10:25:07;10.07;;;6.03;;
27013;SDS011;14556;52.222;4.510;2023-06-22T10:27:35;9.50;;;6.77;;
27013;SDS011;14556;52.222;4.510;2023-06-22T10:30:01;9.97;;;6.23;;
27013;SDS011;14556;52.222;4.510;2023-06-22T10:32:28;10.00;;;7.50;;
27013;SDS011;14556;52.222;4.510;2023-06-22T10:34:55;9.43;;;7.13;;
27013;SDS011;14556;52.222;4.510;2023-06-22T10:37:24;10.70;;;8.07;;
27013;SDS011;14556;52.222;4.510;2023-06-22T10:39:51;14.10;;;9.00;;
27013;SDS011;14556;52.222;4.510;2023-06-22T10:42:20;14.17;;;9.07;;
27013;SDS011;14556;52.222;4.510;2023-06-22T10:44:46;12.80;;;8.20;;
27013;SDS011;14556;52.222;4.510;2023-06-22T10:47:13;12.00;;;9.20;;
27013;SDS011;14556;52.222;4.510;2023-06-22T10:49:39;11.27;;;8.70;;
27013;SDS011;14556;52.222;4.510;2023-06-22T10:52:07;11.67;;;8.60;;
27013;SDS011;14556;52.222;4.510;2023-06-22T10:54:35;10.07;;;8.50;;
27013;SDS011;14556;52.222;4.510;2023-06-22T10:57:02;11.57;;;8.43;;
27013;SDS011;14556;52.222;4.510;2023-06-22T10:59:29;12.90;;;9.77;;
27013;SDS011;14556;52.222;4.510;2023-06-22T11:01:56;15.73;;;9.00;;
27013;SDS011;14556;52.222;4.510;2023-06-22T11:04:24;12.10;;;8.97;;
27013;SDS011;14556;52.222;4.510;2023-06-22T11:06:50;11.77;;;7.70;;
27013;SDS011;14556;52.222;4.510;2023-06-22T11:09:17;11.87;;;8.30;;
27013;SDS011;14556;52.222;4.510;2023-06-22T11:11:55;14.17;;;8.47;;
27013;SDS011;14556;52.222;4.510;2023-06-22T11:14:22;12.50;;;8.97;;
27013;SDS011;14556;52.222;4.510;2023-06-22T11:16:49;13.10;;;8.90;;
27013;SDS011;14556;52.222;4.510;2023-06-22T11:19:16;9.40;;;7.50;;
27013;SDS011;14556;52.222;4.510;2023-06-22T11:21:43;10.43;;;6.97;;
27013;SDS011;14556;52.222;4.510;2023-06-22T11:24:09;8.03;;;6.13;;
27013;SDS011;14556;52.222;4.510;2023-06-22T11:26:40;6.80;;;5.40;;
27013;SDS011;14556;52.222;4.510;2023-06-22T11:29:06;7.77;;;5.10;;
27013;SDS011;14556;52.222;4.510;2023-06-22T11:31:37;7.53;;;5.83;;
27013;SDS011;14556;52.222;4.510;2023-06-22T11:34:04;8.80;;;6.70;;
27013;SDS011;14556;52.222;4.510;2023-06-22T11:36:31;9.40;;;5.93;;
27013;SDS011;14556;52.222;4.510;2023-06-22T11:38:59;10.10;;;7.10;;
27013;SDS011;14556;52.222;4.510;2023-06-22T11:41:27;11.23;;;8.67;;
27013;SDS011;14556;52.222;4.510;2023-06-22T11:43:53;9.80;;;7.53;;
27013;SDS011;14556;52.222;4.510;2023-06-22T11:46:20;11.13;;;9.00;;
27013;SDS011;14556;52.222;4.510;2023-06-22T11:48:46;9.70;;;7.47;;
27013;SDS011;14556;52.222;4.510;2023-06-22T11:51:14;11.70;;;7.47;;
27013;SDS011;14556;52.222;4.510;2023-06-22T11:53:41;11.17;;;7.73;;
27013;SDS011;14556;52.222;4.510;2023-06-22T11:56:07;10.30;;;8.03;;
27013;SDS011;14556;52.222;4.510;2023-06-22T11:58:35;12.03;;;8.60;;
27013;SDS011;14556;52.222;4.510;2023-06-22T12:01:02;14.17;;;9.57;;
27013;SDS011;14556;52.222;4.510;2023-06-22T12:03:28;12.47;;;8.60;;
27013;SDS011;14556;52.222;4.510;2023-06-22T12:05:56;13.37;;;8.63;;
27013;SDS011;14556;52.222;4.510;2023-06-22T12:08:23;11.17;;;8.43;;
27013;SDS011;14556;52.222;4.510;2023-06-22T12:10:49;12.50;;;9.13;;
27013;SDS011;14556;52.222;4.510;2023-06-22T12:13:16;13.00;;;9.07;;
27013;SDS011;14556;52.222;4.510;2023-06-22T12:15:43;15.03;;;10.87;;
27013;SDS011;14556;52.222;4.510;2023-06-22T12:18:10;13.97;;;10.07;;
27013;SDS011;14556;52.222;4.510;2023-06-22T12:20:37;13.67;;;9.37;;
27013;SDS011;14556;52.222;4.510;2023-06-22T12:23:04;11.63;;;9.23;;
27013;SDS011;14556;52.222;4.510;2023-06-22T12:25:32;16.23;;;10.80;;
27013;SDS011;14556;52.222;4.510;2023-06-22T12:27:59;14.73;;;9.90;;
27013;SDS011;14556;52.222;4.510;2023-06-22T12:30:27;13.67;;;10.67;;
27013;SDS011;14556;52.222;4.510;2023-06-22T12:32:55;14.37;;;10.83;;
27013;SDS011;14556;52.222;4.510;2023-06-22T12:35:22;15.63;;;10.37;;
27013;SDS011;14556;52.222;4.510;2023-06-22T12:37:49;14.23;;;10.07;;
27013;SDS011;14556;52.222;4.510;2023-06-22T12:40:15;12.63;;;9.90;;
27013;SDS011;14556;52.222;4.510;2023-06-22T12:42:42;13.90;;;10.13;;
27013;SDS011;14556;52.222;4.510;2023-06-22T12:45:08;14.57;;;10.73;;
27013;SDS011;14556;52.222;4.510;2023-06-22T12:47:35;14.90;;;9.57;;
27013;SDS011;14556;52.222;4.510;2023-06-22T12:50:02;16.57;;;10.77;;
27013;SDS011;14556;52.222;4.510;2023-06-22T12:52:30;17.10;;;10.60;;
27013;SDS011;14556;52.222;4.510;2023-06-22T12:55:00;14.27;;;10.77;;
27013;SDS011;14556;52.222;4.510;2023-06-22T12:57:27;14.83;;;9.93;;
27013;SDS011;14556;52.222;4.510;2023-06-22T12:59:55;15.63;;;9.23;;
27013;SDS011;14556;52.222;4.510;2023-06-22T13:02:21;14.80;;;9.97;;
27013;SDS011;14556;52.222;4.510;2023-06-22T13:04:48;15.70;;;9.87;;
27013;SDS011;14556;52.222;4.510;2023-06-22T13:07:14;13.73;;;10.47;;
27013;SDS011;14556;52.222;4.510;2023-06-22T13:09:49;14.03;;;9.30;;
27013;SDS011;14556;52.222;4.510;2023-06-22T13:12:22;13.23;;;9.30;;
27013;SDS011;14556;52.222;4.510;2023-06-22T13:14:49;12.43;;;9.60;;
27013;SDS011;14556;52.222;4.510;2023-06-22T13:17:15;15.40;;;10.53;;
27013;SDS011;14556;52.222;4.510;2023-06-22T13:19:42;14.57;;;9.47;;
27013;SDS011;14556;52.222;4.510;2023-06-22T13:22:25;11.83;;;8.80;;
27013;SDS011;14556;52.222;4.510;2023-06-22T13:24:54;12.73;;;9.43;;
27013;SDS011;14556;52.222;4.510;2023-06-22T13:27:21;12.77;;;8.33;;
27013;SDS011;14556;52.222;4.510;2023-06-22T13:29:48;12.33;;;8.93;;
27013;SDS011;14556;52.222;4.510;2023-06-22T13:32:15;12.20;;;8.80;;
27013;SDS011;14556;52.222;4.510;2023-06-22T13:34:42;12.40;;;8.80;;
27013;SDS011;14556;52.222;4.510;2023-06-22T13:37:09;11.57;;;8.47;;
27013;SDS011;14556;52.222;4.510;2023-06-22T13:39:36;11.27;;;8.00;;
27013;SDS011;14556;52.222;4.510;2023-06-22T13:42:02;8.73;;;7.53;;
27013;SDS011;14556;52.222;4.510;2023-06-22T13:44:29;10.50;;;7.77;;
27013;SDS011;14556;52.222;4.510;2023-06-22T13:46:55;11.33;;;7.83;;
27013;SDS011;14556;52.222;4.510;2023-06-22T13:49:22;11.43;;;7.37;;
27013;SDS011;14556;52.222;4.510;2023-06-22T13:51:48;10.00;;;7.43;;
27013;SDS011;14556;52.222;4.510;2023-06-22T13:54:15;13.23;;;8.27;;
27013;SDS011;14556;52.222;4.510;2023-06-22T13:56:55;11.47;;;8.13;;
27013;SDS011;14556;52.222;4.510;2023-06-22T13:59:22;8.43;;;6.73;;
27013;SDS011;14556;52.222;4.510;2023-06-22T14:01:48;9.27;;;7.17;;
27013;SDS011;14556;52.222;4.510;2023-06-22T14:04:15;11.73;;;7.43;;
27013;SDS011;14556;52.222;4.510;2023-06-22T14:06:42;10.13;;;7.30;;
27013;SDS011;14556;52.222;4.510;2023-06-22T14:09:08;10.63;;;7.73;;
27013;SDS011;14556;52.222;4.510;2023-06-22T14:11:35;12.23;;;7.87;;
27013;SDS011;14556;52.222;4.510;2023-06-22T14:14:02;11.47;;;7.93;;
27013;SDS011;14556;52.222;4.510;2023-06-22T14:16:28;11.53;;;8.27;;
27013;SDS011;14556;52.222;4.510;2023-06-22T14:18:55;11.17;;;8.73;;
27013;SDS011;14556;52.222;4.510;2023-06-22T14:21:23;10.67;;;8.20;;
27013;SDS011;14556;52.222;4.510;2023-06-22T14:23:50;11.30;;;8.33;;
27013;SDS011;14556;52.222;4.510;2023-06-22T14:26:17;11.27;;;7.77;;
27013;SDS011;14556;52.222;4.510;2023-06-22T14:28:47;10.37;;;7.53;;
27013;SDS011;14556;52.222;4.510;2023-06-22T14:31:16;9.17;;;6.70;;
27013;SDS011;14556;52.222;4.510;2023-06-22T14:33:45;8.00;;;6.80;;
27013;SDS011;14556;52.222;4.510;2023-06-22T14:36:14;9.83;;;6.60;;
27013;SDS011;14556;52.222;4.510;2023-06-22T14:38:42;8.13;;;6.17;;